sensor_id;sensor_type;location;lat;lon;timestamp;pressure;altitude;pressure_sealevel;temperature;humidity
34482;BME280;20720;48.886;9.388;2023-01-04T00:00:58;99620.94;;;3.88;100.00
34482;BME280;20720;48.886;9.388;2023-01-04T00:03:24;99625.00;;;3.81;100.00
34482;BME280;20720;48.886;9.388;2023-01-04T00:05:49;99631.59;;;3.85;100.00
34482;BME280;20720;48.886;9.388;2023-01-04T00:08:14;99624.53;;;4.28;100.00
34482;BME280;20720;48.886;9.388;2023-01-04T00:10:39;99630.28;;;4.32;100.00
34482;BME280;20720;48.886;9.388;2023-01-04T00:13:05;99634.16;;;4.37;100.00
34482;BME280;20720;48.886;9.388;2023-01-04T00:15:30;99633.66;;;4.02;100.00
34482;BME280;20720;48.886;9.388;2023-01-04T00:17:55;99626.75;;;4.33;100.00
34482;BME280;20720;48.886;9.388;2023-01-04T00:20:20;99609.50;;;4.83;100.00
34482;BME280;20720;48.886;9.388;2023-01-04T00:22:46;99609.06;;;5.36;100.00
34482;BME280;20720;48.886;9.388;2023-01-04T00:25:11;99601.13;;;5.38;100.00
34482;BME280;20720;48.886;9.388;2023-01-04T00:27:36;99601.44;;;5.83;100.00
34482;BME280;20720;48.886;9.388;2023-01-04T00:30:02;99602.03;;;5.86;100.00
34482;BME280;20720;48.886;9.388;2023-01-04T00:32:27;99601.44;;;5.73;100.00
34482;BME280;20720;48.886;9.388;2023-01-04T00:34:52;99579.22;;;5.98;100.00
34482;BME280;20720;48.886;9.388;2023-01-04T00:37:17;99580.31;;;6.14;100.00
34482;BME280;20720;48.886;9.388;2023-01-04T00:39:43;99570.81;;;6.13;100.00
34482;BME280;20720;48.886;9.388;2023-01-04T00:42:08;99567.09;;;6.25;100.00
34482;BME280;20720;48.886;9.388;2023-01-04T00:44:33;99566.03;;;6.18;100.00
34482;BME280;20720;48.886;9.388;2023-01-04T00:47:00;99560.47;;;6.40;100.00
34482;BME280;20720;48.886;9.388;2023-01-04T00:49:27;99559.13;;;6.27;100.00
34482;BME280;20720;48.886;9.388;2023-01-04T00:51:54;99553.91;;;6.17;100.00
34482;BME280;20720;48.886;9.388;2023-01-04T00:54:20;99558.88;;;6.20;100.00
34482;BME280;20720;48.886;9.388;2023-01-04T00:56:45;99555.88;;;6.52;100.00
34482;BME280;20720;48.886;9.388;2023-01-04T00:59:12;99555.25;;;6.40;100.00
34482;BME280;20720;48.886;9.388;2023-01-04T01:01:39;99563.72;;;6.52;100.00
34482;BME280;20720;48.886;9.388;2023-01-04T01:04:04;99560.50;;;6.95;100.00
34482;BME280;20720;48.886;9.388;2023-01-04T01:06:32;99567.44;;;6.86;100.00
34482;BME280;20720;48.886;9.388;2023-01-04T01:08:57;99571.41;;;6.53;100.00
34482;BME280;20720;48.886;9.388;2023-01-04T01:11:23;99570.91;;;6.77;100.00
34482;BME280;20720;48.886;9.388;2023-01-04T01:13:49;99581.41;;;6.68;100.00
34482;BME280;20720;48.886;9.388;2023-01-04T01:16:17;99574.13;;;6.61;100.00
34482;BME280;20720;48.886;9.388;2023-01-04T01:18:43;99574.31;;;6.50;100.00
34482;BME280;20720;48.886;9.388;2023-01-04T01:21:23;99576.63;;;6.53;100.00
34482;BME280;20720;48.886;9.388;2023-01-04T01:23:49;99579.75;;;6.94;100.00
34482;BME280;20720;48.886;9.388;2023-01-04T01:26:17;99577.34;;;6.83;100.00
34482;BME280;20720;48.886;9.388;2023-01-04T01:28:43;99566.97;;;6.63;100.00
34482;BME280;20720;48.886;9.388;2023-01-04T01:31:11;99575.31;;;6.77;100.00
34482;BME280;20720;48.886;9.388;2023-01-04T01:33:38;99583.69;;;6.71;100.00
34482;BME280;20720;48.886;9.388;2023-01-04T01:36:04;99587.63;;;6.47;100.00
34482;BME280;20720;48.886;9.388;2023-01-04T01:38:30;99597.84;;;7.05;100.00
34482;BME280;20720;48.886;9.388;2023-01-04T01:40:55;99599.94;;;6.64;100.00
34482;BME280;20720;48.886;9.388;2023-01-04T01:46:07;99613.38;;;6.79;100.00
34482;BME280;20720;48.886;9.388;2023-01-04T01:48:33;99610.91;;;6.68;100.00
34482;BME280;20720;48.886;9.388;2023-01-04T01:51:01;99603.84;;;6.88;100.00
34482;BME280;20720;48.886;9.388;2023-01-04T01:53:29;99606.44;;;6.88;100.00
34482;BME280;20720;48.886;9.388;2023-01-04T01:55:56;99601.53;;;6.85;100.00
34482;BME280;20720;48.886;9.388;2023-01-04T01:58:32;99604.19;;;7.02;100.00
34482;BME280;20720;48.886;9.388;2023-01-04T02:00:58;99610.72;;;6.89;100.00
34482;BME280;20720;48.886;9.388;2023-01-04T02:03:34;99604.31;;;6.74;100.00
34482;BME280;20720;48.886;9.388;2023-01-04T02:06:01;99596.31;;;6.85;100.00
34482;BME280;20720;48.886;9.388;2023-01-04T02:08:28;99595.13;;;6.70;100.00
34482;BME280;20720;48.886;9.388;2023-01-04T02:10:54;99596.59;;;6.35;100.00
34482;BME280;20720;48.886;9.388;2023-01-04T02:13:26;99592.03;;;6.47;100.00
34482;BME280;20720;48.886;9.388;2023-01-04T02:16:32;99586.13;;;6.82;100.00
34482;BME280;20720;48.886;9.388;2023-01-04T02:19:09;99592.81;;;6.01;100.00
34482;BME280;20720;48.886;9.388;2023-01-04T02:27:48;99585.31;;;4.71;100.00
34482;BME280;20720;48.886;9.388;2023-01-04T02:33:26;99581.41;;;5.45;100.00
34482;BME280;20720;48.886;9.388;2023-01-04T02:41:28;99563.53;;;5.31;100.00
34482;BME280;20720;48.886;9.388;2023-01-04T02:44:18;99561.22;;;5.56;100.00
34482;BME280;20720;48.886;9.388;2023-01-04T02:47:08;99553.13;;;5.31;100.00
34482;BME280;20720;48.886;9.388;2023-01-04T02:49:34;99554.22;;;5.38;100.00
34482;BME280;20720;48.886;9.388;2023-01-04T02:52:19;99554.06;;;5.11;100.00
34482;BME280;20720;48.886;9.388;2023-01-04T02:54:47;99548.28;;;5.17;100.00
34482;BME280;20720;48.886;9.388;2023-01-04T02:57:42;99542.69;;;5.31;100.00
34482;BME280;20720;48.886;9.388;2023-01-04T03:00:38;99538.16;;;5.14;100.00
34482;BME280;20720;48.886;9.388;2023-01-04T03:03:37;99526.63;;;5.07;100.00
34482;BME280;20720;48.886;9.388;2023-01-04T03:06:35;99523.59;;;5.02;100.00
34482;BME280;20720;48.886;9.388;2023-01-04T03:09:13;99523.38;;;5.24;100.00
34482;BME280;20720;48.886;9.388;2023-01-04T03:11:47;99525.97;;;5.24;100.00
34482;BME280;20720;48.886;9.388;2023-01-04T03:14:38;99517.13;;;4.87;100.00
34482;BME280;20720;48.886;9.388;2023-01-04T03:17:11;99516.63;;;5.02;100.00
34482;BME280;20720;48.886;9.388;2023-01-04T03:19:38;99510.16;;;4.97;100.00
34482;BME280;20720;48.886;9.388;2023-01-04T03:22:26;99508.44;;;5.16;100.00
34482;BME280;20720;48.886;9.388;2023-01-04T03:25:14;99498.38;;;4.93;100.00
34482;BME280;20720;48.886;9.388;2023-01-04T03:27:59;99490.56;;;5.02;100.00
34482;BME280;20720;48.886;9.388;2023-01-04T03:30:56;99492.25;;;5.13;100.00
34482;BME280;20720;48.886;9.388;2023-01-04T03:33:42;99483.75;;;5.11;100.00
34482;BME280;20720;48.886;9.388;2023-01-04T03:36:35;99488.53;;;5.06;100.00
34482;BME280;20720;48.886;9.388;2023-01-04T03:40:25;99482.38;;;5.16;100.00
34482;BME280;20720;48.886;9.388;2023-01-04T03:42:47;99493.75;;;5.15;100.00
34482;BME280;20720;48.886;9.388;2023-01-04T03:45:42;99484.13;;;4.97;100.00
34482;BME280;20720;48.886;9.388;2023-01-04T03:48:32;99486.44;;;5.00;100.00
34482;BME280;20720;48.886;9.388;2023-01-04T03:51:30;99484.81;;;4.99;100.00
34482;BME280;20720;48.886;9.388;2023-01-04T03:54:08;99486.06;;;5.14;100.00
34482;BME280;20720;48.886;9.388;2023-01-04T03:56:38;99490.88;;;5.18;100.00
34482;BME280;20720;48.886;9.388;2023-01-04T03:59:06;99497.72;;;5.10;100.00
34482;BME280;20720;48.886;9.388;2023-01-04T04:01:33;99486.44;;;5.00;100.00
34482;BME280;20720;48.886;9.388;2023-01-04T04:03:59;99486.47;;;5.09;100.00
34482;BME280;20720;48.886;9.388;2023-01-04T04:06:42;99485.50;;;5.01;100.00
34482;BME280;20720;48.886;9.388;2023-01-04T04:09:27;99481.00;;;5.03;100.00
34482;BME280;20720;48.886;9.388;2023-01-04T04:11:52;99474.72;;;5.15;100.00
34482;BME280;20720;48.886;9.388;2023-01-04T04:14:18;99474.44;;;5.37;100.00
34482;BME280;20720;48.886;9.388;2023-01-04T04:16:43;99473.72;;;5.16;100.00
34482;BME280;20720;48.886;9.388;2023-01-04T04:19:08;99461.81;;;5.23;100.00
34482;BME280;20720;48.886;9.388;2023-01-04T04:21:34;99468.91;;;5.49;100.00
34482;BME280;20720;48.886;9.388;2023-01-04T04:23:59;99468.94;;;5.30;100.00
34482;BME280;20720;48.886;9.388;2023-01-04T04:26:24;99470.44;;;5.52;100.00
34482;BME280;20720;48.886;9.388;2023-01-04T04:28:50;99462.09;;;5.29;100.00
34482;BME280;20720;48.886;9.388;2023-01-04T04:31:15;99455.84;;;5.78;100.00
34482;BME280;20720;48.886;9.388;2023-01-04T04:33:41;99468.34;;;5.74;100.00
34482;BME280;20720;48.886;9.388;2023-01-04T04:36:07;99458.88;;;5.83;100.00
34482;BME280;20720;48.886;9.388;2023-01-04T04:38:33;99458.94;;;6.10;100.00
34482;BME280;20720;48.886;9.388;2023-01-04T04:40:58;99457.56;;;6.06;100.00
34482;BME280;20720;48.886;9.388;2023-01-04T04:43:42;99460.22;;;5.97;100.00
34482;BME280;20720;48.886;9.388;2023-01-04T04:46:08;99457.88;;;6.30;100.00
34482;BME280;20720;48.886;9.388;2023-01-04T04:48:33;99459.00;;;5.72;100.00
34482;BME280;20720;48.886;9.388;2023-01-04T04:50:59;99466.63;;;6.12;100.00
34482;BME280;20720;48.886;9.388;2023-01-04T04:53:24;99458.56;;;6.32;100.00
34482;BME280;20720;48.886;9.388;2023-01-04T04:55:51;99458.56;;;6.32;100.00
34482;BME280;20720;48.886;9.388;2023-01-04T04:58:16;99452.06;;;6.19;100.00
34482;BME280;20720;48.886;9.388;2023-01-04T05:00:42;99447.28;;;6.05;100.00
34482;BME280;20720;48.886;9.388;2023-01-04T05:03:07;99442.16;;;6.22;100.00
34482;BME280;20720;48.886;9.388;2023-01-04T05:05:32;99436.88;;;5.95;100.00
34482;BME280;20720;48.886;9.388;2023-01-04T05:07:57;99438.53;;;6.33;100.00
34482;BME280;20720;48.886;9.388;2023-01-04T05:10:23;99431.84;;;6.21;100.00
34482;BME280;20720;48.886;9.388;2023-01-04T05:12:48;99429.78;;;6.24;100.00
34482;BME280;20720;48.886;9.388;2023-01-04T05:15:52;99432.66;;;5.94;100.00
34482;BME280;20720;48.886;9.388;2023-01-04T05:18:19;99439.63;;;6.57;100.00
34482;BME280;20720;48.886;9.388;2023-01-04T05:20:46;99445.50;;;6.05;100.00
34482;BME280;20720;48.886;9.388;2023-01-04T05:23:13;99449.44;;;6.46;100.00
34482;BME280;20720;48.886;9.388;2023-01-04T05:25:39;99447.81;;;6.90;100.00
34482;BME280;20720;48.886;9.388;2023-01-04T05:28:05;99447.81;;;7.07;100.00
34482;BME280;20720;48.886;9.388;2023-01-04T05:30:31;99451.47;;;7.32;100.00
34482;BME280;20720;48.886;9.388;2023-01-04T05:33:26;99453.81;;;7.86;100.00
34482;BME280;20720;48.886;9.388;2023-01-04T05:35:52;99458.34;;;7.76;100.00
34482;BME280;20720;48.886;9.388;2023-01-04T05:38:19;99459.22;;;8.36;100.00
34482;BME280;20720;48.886;9.388;2023-01-04T05:40:46;99458.66;;;7.73;100.00
34482;BME280;20720;48.886;9.388;2023-01-04T05:43:12;99453.06;;;7.94;100.00
34482;BME280;20720;48.886;9.388;2023-01-04T05:45:38;99449.00;;;7.99;100.00
34482;BME280;20720;48.886;9.388;2023-01-04T05:48:04;99444.03;;;8.22;100.00
34482;BME280;20720;48.886;9.388;2023-01-04T05:50:29;99448.63;;;8.53;100.00
34482;BME280;20720;48.886;9.388;2023-01-04T05:52:55;99447.94;;;8.43;100.00
34482;BME280;20720;48.886;9.388;2023-01-04T05:55:20;99451.91;;;8.55;100.00
34482;BME280;20720;48.886;9.388;2023-01-04T05:57:45;99444.44;;;8.69;100.00
34482;BME280;20720;48.886;9.388;2023-01-04T06:00:12;99449.66;;;8.61;100.00
34482;BME280;20720;48.886;9.388;2023-01-04T06:02:40;99449.69;;;8.77;100.00
34482;BME280;20720;48.886;9.388;2023-01-04T06:05:06;99445.16;;;9.03;100.00
34482;BME280;20720;48.886;9.388;2023-01-04T06:07:31;99446.94;;;8.86;100.00
34482;BME280;20720;48.886;9.388;2023-01-04T06:09:57;99450.06;;;8.48;100.00
34482;BME280;20720;48.886;9.388;2023-01-04T06:12:22;99449.66;;;8.61;100.00
34482;BME280;20720;48.886;9.388;2023-01-04T06:14:47;99449.25;;;8.39;100.00
34482;BME280;20720;48.886;9.388;2023-01-04T06:17:13;99441.38;;;8.39;100.00
34482;BME280;20720;48.886;9.388;2023-01-04T06:19:38;99443.38;;;8.45;100.00
34482;BME280;20720;48.886;9.388;2023-01-04T06:22:03;99440.84;;;8.70;100.00
34482;BME280;20720;48.886;9.388;2023-01-04T06:24:29;99440.63;;;8.55;100.00
34482;BME280;20720;48.886;9.388;2023-01-04T06:26:54;99432.94;;;8.62;100.00
34482;BME280;20720;48.886;9.388;2023-01-04T06:29:19;99420.56;;;8.80;100.00
34482;BME280;20720;48.886;9.388;2023-01-04T06:31:45;99429.69;;;8.68;100.00
34482;BME280;20720;48.886;9.388;2023-01-04T06:34:11;99431.16;;;8.62;100.00
34482;BME280;20720;48.886;9.388;2023-01-04T06:36:37;99431.38;;;8.27;100.00
34482;BME280;20720;48.886;9.388;2023-01-04T06:39:02;99429.09;;;8.32;100.00
34482;BME280;20720;48.886;9.388;2023-01-04T06:41:28;99437.97;;;8.21;100.00
34482;BME280;20720;48.886;9.388;2023-01-04T06:43:53;99426.53;;;8.56;100.00
34482;BME280;20720;48.886;9.388;2023-01-04T06:46:18;99420.00;;;8.60;100.00
34482;BME280;20720;48.886;9.388;2023-01-04T06:48:44;99419.13;;;9.09;100.00
34482;BME280;20720;48.886;9.388;2023-01-04T06:51:09;99416.91;;;8.73;100.00
34482;BME280;20720;48.886;9.388;2023-01-04T06:53:35;99426.16;;;8.93;100.00
34482;BME280;20720;48.886;9.388;2023-01-04T06:56:00;99420.44;;;9.05;100.00
34482;BME280;20720;48.886;9.388;2023-01-04T06:58:25;99427.75;;;8.86;100.00
34482;BME280;20720;48.886;9.388;2023-01-04T07:00:51;99425.19;;;9.58;100.00
34482;BME280;20720;48.886;9.388;2023-01-04T07:03:17;99423.88;;;9.70;100.00
34482;BME280;20720;48.886;9.388;2023-01-04T07:05:43;99421.91;;;9.08;100.00
34482;BME280;20720;48.886;9.388;2023-01-04T07:08:09;99421.59;;;9.27;100.00
34482;BME280;20720;48.886;9.388;2023-01-04T07:10:35;99420.94;;;9.57;100.00
34482;BME280;20720;48.886;9.388;2023-01-04T07:13:00;99424.84;;;8.97;100.00
34482;BME280;20720;48.886;9.388;2023-01-04T07:15:25;99421.59;;;9.43;100.00
34482;BME280;20720;48.886;9.388;2023-01-04T07:17:51;99427.16;;;9.24;100.00
34482;BME280;20720;48.886;9.388;2023-01-04T07:20:16;99435.84;;;9.16;100.00
34482;BME280;20720;48.886;9.388;2023-01-04T07:22:42;99416.69;;;9.16;100.00
34482;BME280;20720;48.886;9.388;2023-01-04T07:25:07;99426.81;;;8.95;100.00
34482;BME280;20720;48.886;9.388;2023-01-04T07:27:32;99421.59;;;9.19;100.00
34482;BME280;20720;48.886;9.388;2023-01-04T07:29:58;99424.34;;;9.01;100.00
34482;BME280;20720;48.886;9.388;2023-01-04T07:32:23;99428.72;;;8.77;100.00
34482;BME280;20720;48.886;9.388;2023-01-04T07:34:49;99425.47;;;8.83;100.00
34482;BME280;20720;48.886;9.388;2023-01-04T07:37:14;99424.06;;;9.28;100.00
34482;BME280;20720;48.886;9.388;2023-01-04T07:39:40;99417.81;;;8.89;100.00
34482;BME280;20720;48.886;9.388;2023-01-04T07:42:06;99419.22;;;8.68;100.00
34482;BME280;20720;48.886;9.388;2023-01-04T07:44:31;99428.34;;;8.47;100.00
34482;BME280;20720;48.886;9.388;2023-01-04T07:46:56;99420.56;;;8.88;100.00
34482;BME280;20720;48.886;9.388;2023-01-04T07:49:22;99409.25;;;8.29;100.00
34482;BME280;20720;48.886;9.388;2023-01-04T07:51:48;99411.78;;;8.47;100.00
34482;BME280;20720;48.886;9.388;2023-01-04T07:54:15;99409.06;;;8.23;100.00
34482;BME280;20720;48.886;9.388;2023-01-04T07:56:41;99404.03;;;8.29;100.00
34482;BME280;20720;48.886;9.388;2023-01-04T07:59:07;99391.59;;;8.31;100.00
34482;BME280;20720;48.886;9.388;2023-01-04T08:01:34;99397.03;;;8.38;100.00
34482;BME280;20720;48.886;9.388;2023-01-04T08:04:00;99380.66;;;8.36;100.00
34482;BME280;20720;48.886;9.388;2023-01-04T08:06:26;99386.72;;;8.03;100.00
34482;BME280;20720;48.886;9.388;2023-01-04T08:08:51;99380.97;;;8.33;100.00
34482;BME280;20720;48.886;9.388;2023-01-04T08:11:18;99383.81;;;8.14;100.00
34482;BME280;20720;48.886;9.388;2023-01-04T08:13:44;99371.06;;;8.61;100.00
34482;BME280;20720;48.886;9.388;2023-01-04T08:16:28;99360.25;;;8.47;100.00
34482;BME280;20720;48.886;9.388;2023-01-04T08:18:57;99365.78;;;8.44;100.00
34482;BME280;20720;48.886;9.388;2023-01-04T08:21:23;99346.69;;;8.18;100.00
34482;BME280;20720;48.886;9.388;2023-01-04T08:23:49;99346.13;;;8.32;100.00
34482;BME280;20720;48.886;9.388;2023-01-04T08:26:15;99346.53;;;8.20;100.00
34482;BME280;20720;48.886;9.388;2023-01-04T08:28:41;99344.81;;;8.28;100.00
34482;BME280;20720;48.886;9.388;2023-01-04T08:31:12;99342.59;;;8.66;100.00
34482;BME280;20720;48.886;9.388;2023-01-04T08:33:39;99337.34;;;8.66;100.00
34482;BME280;20720;48.886;9.388;2023-01-04T08:36:20;99338.13;;;8.50;100.00
34482;BME280;20720;48.886;9.388;2023-01-04T08:38:46;99331.97;;;8.59;100.00
34482;BME280;20720;48.886;9.388;2023-01-04T08:41:13;99344.53;;;8.47;100.00
34482;BME280;20720;48.886;9.388;2023-01-04T08:43:39;99345.38;;;8.64;100.00
34482;BME280;20720;48.886;9.388;2023-01-04T08:46:05;99342.94;;;8.87;100.00
34482;BME280;20720;48.886;9.388;2023-01-04T08:48:31;99335.41;;;8.76;100.00
34482;BME280;20720;48.886;9.388;2023-01-04T08:50:58;99322.94;;;8.62;100.00
34482;BME280;20720;48.886;9.388;2023-01-04T08:53:24;99321.66;;;8.74;100.00
34482;BME280;20720;48.886;9.388;2023-01-04T08:55:50;99328.16;;;8.62;100.00
34482;BME280;20720;48.886;9.388;2023-01-04T08:58:16;99311.00;;;8.75;100.00
34482;BME280;20720;48.886;9.388;2023-01-04T09:00:41;99311.66;;;9.01;100.00
34482;BME280;20720;48.886;9.388;2023-01-04T09:03:07;99312.81;;;8.83;100.00
34482;BME280;20720;48.886;9.388;2023-01-04T09:05:32;99313.75;;;8.57;100.00
34482;BME280;20720;48.886;9.388;2023-01-04T09:08:00;99330.81;;;8.94;100.00
34482;BME280;20720;48.886;9.388;2023-01-04T09:10:25;99336.88;;;8.94;100.00
34482;BME280;20720;48.886;9.388;2023-01-04T09:12:51;99336.06;;;8.70;100.00
34482;BME280;20720;48.886;9.388;2023-01-04T09:15:17;99331.94;;;9.47;100.00
34482;BME280;20720;48.886;9.388;2023-01-04T09:17:42;99338.03;;;8.92;100.00
34482;BME280;20720;48.886;9.388;2023-01-04T09:20:08;99337.72;;;8.95;100.00
34482;BME280;20720;48.886;9.388;2023-01-04T09:22:34;99333.78;;;8.99;100.00
34482;BME280;20720;48.886;9.388;2023-01-04T09:24:59;99335.72;;;9.05;100.00
34482;BME280;20720;48.886;9.388;2023-01-04T09:27:25;99333.66;;;9.71;100.00
34482;BME280;20720;48.886;9.388;2023-01-04T09:29:50;99334.75;;;9.06;100.00
34482;BME280;20720;48.886;9.388;2023-01-04T09:32:15;99329.97;;;9.25;100.00
34482;BME280;20720;48.886;9.388;2023-01-04T09:34:41;99341.28;;;9.42;100.00
34482;BME280;20720;48.886;9.388;2023-01-04T09:37:06;99338.53;;;9.11;100.00
34482;BME280;20720;48.886;9.388;2023-01-04T09:39:31;99341.88;;;9.60;100.00
34482;BME280;20720;48.886;9.388;2023-01-04T09:42:01;99332.41;;;9.43;100.00
34482;BME280;20720;48.886;9.388;2023-01-04T09:44:34;99330.31;;;9.38;100.00
34482;BME280;20720;48.886;9.388;2023-01-04T09:47:05;99330.06;;;9.64;100.00
34482;BME280;20720;48.886;9.388;2023-01-04T09:49:49;99320.28;;;9.42;100.00
34482;BME280;20720;48.886;9.388;2023-01-04T09:52:24;99326.56;;;9.33;100.00
34482;BME280;20720;48.886;9.388;2023-01-04T09:54:52;99323.69;;;9.67;100.00
34482;BME280;20720;48.886;9.388;2023-01-04T09:57:29;99324.09;;;9.86;100.00
34482;BME280;20720;48.886;9.388;2023-01-04T10:00:00;99322.59;;;9.37;100.00
34482;BME280;20720;48.886;9.388;2023-01-04T10:05:31;99313.25;;;9.89;100.00
34482;BME280;20720;48.886;9.388;2023-01-04T10:07:57;99306.44;;;9.72;100.00
34482;BME280;20720;48.886;9.388;2023-01-04T10:13:30;99289.63;;;9.97;100.00
34482;BME280;20720;48.886;9.388;2023-01-04T10:16:21;99286.81;;;9.99;100.00
34482;BME280;20720;48.886;9.388;2023-01-04T10:19:02;99278.88;;;10.07;100.00
34482;BME280;20720;48.886;9.388;2023-01-04T10:21:43;99275.44;;;10.06;100.00
34482;BME280;20720;48.886;9.388;2023-01-04T10:27:01;99277.56;;;10.41;100.00
34482;BME280;20720;48.886;9.388;2023-01-04T10:29:46;99262.00;;;10.09;100.00
34482;BME280;20720;48.886;9.388;2023-01-04T10:32:25;99277.31;;;10.28;100.00
34482;BME280;20720;48.886;9.388;2023-01-04T10:34:55;99269.28;;;10.22;100.00
34482;BME280;20720;48.886;9.388;2023-01-04T10:37:23;99266.88;;;10.66;100.00
34482;BME280;20720;48.886;9.388;2023-01-04T10:39:50;99262.97;;;10.62;100.00
34482;BME280;20720;48.886;9.388;2023-01-04T10:42:35;99254.72;;;10.65;100.00
34482;BME280;20720;48.886;9.388;2023-01-04T10:45:18;99254.91;;;10.40;100.00
34482;BME280;20720;48.886;9.388;2023-01-04T10:55:51;99257.00;;;10.68;100.00
34482;BME280;20720;48.886;9.388;2023-01-04T10:58:42;99250.94;;;11.19;100.00
34482;BME280;20720;48.886;9.388;2023-01-04T11:01:15;99250.91;;;10.90;100.00
34482;BME280;20720;48.886;9.388;2023-01-04T11:03:47;99250.03;;;10.97;100.00
34482;BME280;20720;48.886;9.388;2023-01-04T11:06:27;99238.16;;;11.30;100.00
34482;BME280;20720;48.886;9.388;2023-01-04T11:08:58;99226.75;;;11.23;100.00
34482;BME280;20720;48.886;9.388;2023-01-04T11:11:40;99222.09;;;11.11;100.00
34482;BME280;20720;48.886;9.388;2023-01-04T11:14:07;99223.19;;;11.31;100.00
34482;BME280;20720;48.886;9.388;2023-01-04T11:16:34;99221.94;;;11.27;100.00
34482;BME280;20720;48.886;9.388;2023-01-04T11:19:00;99214.13;;;11.48;100.00
34482;BME280;20720;48.886;9.388;2023-01-04T11:21:28;99204.09;;;11.87;100.00
34482;BME280;20720;48.886;9.388;2023-01-04T11:24:00;99210.41;;;11.13;100.00
34482;BME280;20720;48.886;9.388;2023-01-04T11:26:37;99201.16;;;11.17;100.00
34482;BME280;20720;48.886;9.388;2023-01-04T11:29:05;99209.31;;;11.22;100.00
34482;BME280;20720;48.886;9.388;2023-01-04T11:34:50;99202.69;;;11.12;100.00
34482;BME280;20720;48.886;9.388;2023-01-04T11:37:23;99201.94;;;11.47;100.00
34482;BME280;20720;48.886;9.388;2023-01-04T11:39:49;99196.63;;;11.41;100.00
34482;BME280;20720;48.886;9.388;2023-01-04T11:42:19;99198.41;;;11.11;100.00
34482;BME280;20720;48.886;9.388;2023-01-04T11:44:57;99185.94;;;11.27;100.00
34482;BME280;20720;48.886;9.388;2023-01-04T11:47:23;99177.94;;;11.21;100.00
34482;BME280;20720;48.886;9.388;2023-01-04T11:49:49;99182.81;;;11.09;100.00
34482;BME280;20720;48.886;9.388;2023-01-04T11:52:35;99178.00;;;11.13;100.00
34482;BME280;20720;48.886;9.388;2023-01-04T11:55:27;99171.31;;;11.25;100.00
34482;BME280;20720;48.886;9.388;2023-01-04T11:58:12;99192.56;;;11.09;100.00
34482;BME280;20720;48.886;9.388;2023-01-04T12:00:52;99180.00;;;11.40;100.00
34482;BME280;20720;48.886;9.388;2023-01-04T12:03:26;99182.00;;;11.38;100.00
34482;BME280;20720;48.886;9.388;2023-01-04T12:05:52;99188.16;;;11.45;100.00
34482;BME280;20720;48.886;9.388;2023-01-04T12:08:33;99204.94;;;11.15;100.00
34482;BME280;20720;48.886;9.388;2023-01-04T12:11:00;99179.47;;;11.30;100.00
34482;BME280;20720;48.886;9.388;2023-01-04T12:13:26;99192.19;;;11.41;100.00
34482;BME280;20720;48.886;9.388;2023-01-04T12:18:41;99191.44;;;11.62;100.00
34482;BME280;20720;48.886;9.388;2023-01-04T12:21:16;99189.97;;;11.59;100.00
34482;BME280;20720;48.886;9.388;2023-01-04T12:23:43;99184.72;;;11.30;100.00
34482;BME280;20720;48.886;9.388;2023-01-04T12:26:10;99180.34;;;11.66;100.00
34482;BME280;20720;48.886;9.388;2023-01-04T12:28:39;99180.22;;;11.24;100.00
34482;BME280;20720;48.886;9.388;2023-01-04T12:33:48;99174.88;;;11.82;100.00
34482;BME280;20720;48.886;9.388;2023-01-04T12:36:16;99172.88;;;11.84;100.00
34482;BME280;20720;48.886;9.388;2023-01-04T12:41:17;99169.91;;;11.73;100.00
34482;BME280;20720;48.886;9.388;2023-01-04T12:43:43;99173.97;;;12.11;100.00
34482;BME280;20720;48.886;9.388;2023-01-04T12:54:47;99146.31;;;12.00;100.00
34482;BME280;20720;48.886;9.388;2023-01-04T12:59:57;99139.94;;;11.74;100.00
34482;BME280;20720;48.886;9.388;2023-01-04T13:02:32;99136.91;;;11.91;100.00
34482;BME280;20720;48.886;9.388;2023-01-04T13:05:00;99134.69;;;11.74;100.00
34482;BME280;20720;48.886;9.388;2023-01-04T13:07:32;99134.94;;;12.00;100.00
34482;BME280;20720;48.886;9.388;2023-01-04T13:13:25;99118.97;;;12.01;100.00
34482;BME280;20720;48.886;9.388;2023-01-04T13:18:45;99117.09;;;11.95;100.00
34482;BME280;20720;48.886;9.388;2023-01-04T13:21:15;99100.84;;;12.13;100.00
34482;BME280;20720;48.886;9.388;2023-01-04T13:23:50;99090.75;;;12.44;100.00
34482;BME280;20720;48.886;9.388;2023-01-04T13:26:39;99087.28;;;12.44;100.00
34482;BME280;20720;48.886;9.388;2023-01-04T13:39:40;99085.03;;;12.13;100.00
34482;BME280;20720;48.886;9.388;2023-01-04T13:42:17;99079.69;;;12.27;100.00
34482;BME280;20720;48.886;9.388;2023-01-04T13:45:11;99082.41;;;12.13;100.00
34482;BME280;20720;48.886;9.388;2023-01-04T13:47:41;99070.19;;;12.05;100.00
34482;BME280;20720;48.886;9.388;2023-01-04T13:50:26;99078.44;;;12.23;100.00
34482;BME280;20720;48.886;9.388;2023-01-04T13:52:52;99072.41;;;12.29;100.00
34482;BME280;20720;48.886;9.388;2023-01-04T13:55:31;99071.91;;;12.19;100.00
34482;BME280;20720;48.886;9.388;2023-01-04T13:57:59;99060.78;;;12.52;100.00
34482;BME280;20720;48.886;9.388;2023-01-04T14:00:29;99060.22;;;12.56;100.00
34482;BME280;20720;48.886;9.388;2023-01-04T14:03:12;99058.69;;;12.41;100.00
34482;BME280;20720;48.886;9.388;2023-01-04T14:05:45;99052.72;;;12.25;100.00
34482;BME280;20720;48.886;9.388;2023-01-04T14:08:17;99058.00;;;12.60;100.00
34482;BME280;20720;48.886;9.388;2023-01-04T14:10:44;99058.06;;;12.39;100.00
34482;BME280;20720;48.886;9.388;2023-01-04T14:13:15;99061.47;;;12.60;100.00
34482;BME280;20720;48.886;9.388;2023-01-04T14:15:41;99051.91;;;12.59;100.00
34482;BME280;20720;48.886;9.388;2023-01-04T14:18:28;99059.19;;;12.51;100.00
34482;BME280;20720;48.886;9.388;2023-01-04T14:20:53;99054.66;;;12.45;100.00
34482;BME280;20720;48.886;9.388;2023-01-04T14:23:33;99050.94;;;12.32;100.00
34482;BME280;20720;48.886;9.388;2023-01-04T14:26:00;99050.06;;;12.53;100.00
34482;BME280;20720;48.886;9.388;2023-01-04T14:28:32;99044.81;;;12.25;100.00